createdAt,value
2023-04-17T00:01:04.086Z,101783.56
2023-04-17T00:03:33.273Z,101783.06
2023-04-17T00:06:02.097Z,101777.34
2023-04-17T00:08:31.233Z,101779.59
2023-04-17T00:11:07.194Z,101784.09
2023-04-17T00:13:36.819Z,101785.81
2023-04-17T00:16:07.383Z,101776.75
2023-04-17T00:18:35.974Z,101784.59
2023-04-17T00:21:04.711Z,101772.09
2023-04-17T00:23:33.412Z,101776.22
2023-04-17T00:26:01.977Z,101779.56
2023-04-17T00:28:30.522Z,101784.06
2023-04-17T00:30:59.178Z,101775.00
2023-04-17T00:33:29.367Z,101772.69
2023-04-17T00:35:57.920Z,101784.06
2023-04-17T00:38:26.523Z,101777.34
2023-04-17T00:40:55.037Z,101773.03
2023-04-17T00:43:23.776Z,101780.69
2023-04-17T00:45:53.822Z,101786.16
2023-04-17T00:48:24.395Z,101772.91
2023-04-17T00:50:55.521Z,101777.66
2023-04-17T00:53:24.215Z,101784.28
2023-04-17T00:55:53.836Z,101775.31
2023-04-17T00:58:22.548Z,101783.34
2023-04-17T01:00:51.435Z,101782.09
2023-04-17T01:03:20.849Z,101784.66
2023-04-17T01:05:52.373Z,101785.00
2023-04-17T01:08:23.651Z,101787.47
2023-04-17T01:10:53.646Z,101783.19
2023-04-17T01:13:22.124Z,101782.91
2023-04-17T01:15:50.676Z,101780.38
2023-04-17T01:18:19.713Z,101785.84
2023-04-17T01:20:48.151Z,101787.34
2023-04-17T01:23:17.369Z,101787.53
2023-04-17T01:25:47.601Z,101788.31
2023-04-17T01:28:16.674Z,101784.00
2023-04-17T01:30:45.275Z,101780.56
2023-04-17T01:33:13.990Z,101786.91
2023-04-17T01:35:42.457Z,101787.47
2023-04-17T01:38:11.079Z,101789.22
2023-04-17T01:40:39.623Z,101790.34
2023-04-17T01:43:09.611Z,101790.75
2023-04-17T01:45:38.204Z,101784.91
2023-04-17T01:48:07.170Z,101778.34
2023-04-17T01:50:36.006Z,101788.31
2023-04-17T01:53:04.512Z,101788.03
2023-04-17T01:55:33.034Z,101785.78
2023-04-17T01:58:01.611Z,101786.50
2023-04-17T02:00:31.518Z,101796.75
2023-04-17T02:03:00.261Z,101793.41
2023-04-17T02:05:28.852Z,101785.25
2023-04-17T02:07:57.446Z,101790.28
2023-04-17T02:10:27.832Z,101791.25
2023-04-17T02:12:56.424Z,101788.06
2023-04-17T02:15:24.901Z,101791.97
2023-04-17T02:17:54.904Z,101791.06
2023-04-17T02:20:23.660Z,101790.72
2023-04-17T02:22:52.149Z,101795.19
2023-04-17T02:25:20.811Z,101800.47
2023-04-17T02:27:49.312Z,101798.16
2023-04-17T02:30:17.814Z,101800.97
2023-04-17T02:32:47.145Z,101798.47
2023-04-17T02:35:17.236Z,101805.28
2023-04-17T02:37:45.790Z,101806.81
2023-04-17T02:40:14.586Z,101801.91
2023-04-17T02:42:43.413Z,101801.84
2023-04-17T02:45:12.436Z,101802.94
2023-04-17T02:47:41.648Z,101807.72
2023-04-17T02:50:12.595Z,101806.28
2023-04-17T02:52:54.935Z,101806.94
2023-04-17T02:55:24.584Z,101814.72
2023-04-17T02:57:53.109Z,101812.81
2023-04-17T03:00:22.030Z,101819.19
2023-04-17T03:02:51.012Z,101819.28
2023-04-17T03:05:20.546Z,101817.03
2023-04-17T03:07:49.431Z,101821.47
2023-04-17T03:10:19.651Z,101832.06
2023-04-17T03:12:48.294Z,101828.78
2023-04-17T03:15:16.741Z,101835.00
2023-04-17T03:17:46.106Z,101825.56
2023-04-17T03:20:16.147Z,101827.81
2023-04-17T03:22:44.797Z,101819.78
2023-04-17T03:25:13.981Z,101828.78
2023-04-17T03:27:51.917Z,101830.78
2023-04-17T03:30:23.059Z,101827.91
2023-04-17T03:32:53.504Z,101836.25
2023-04-17T03:35:22.871Z,101832.72
2023-04-17T03:37:51.542Z,101835.16
2023-04-17T03:40:20.225Z,101835.53
2023-04-17T03:42:48.666Z,101837.81
2023-04-17T03:45:18.668Z,101836.13
2023-04-17T03:47:47.964Z,101854.78
2023-04-17T03:50:17.129Z,101849.69
2023-04-17T03:52:55.310Z,101850.91
2023-04-17T03:55:25.971Z,101848.38
2023-04-17T03:57:55.235Z,101854.19
2023-04-17T04:00:27.471Z,101845.56
2023-04-17T04:03:01.590Z,101854.50
2023-04-17T04:05:37.345Z,101854.19
2023-04-17T04:08:06.559Z,101854.50
2023-04-17T04:10:44.335Z,101858.34
2023-04-17T04:13:15.852Z,101871.47
2023-04-17T04:15:51.646Z,101857.28
2023-04-17T04:18:22.181Z,101867.63
2023-04-17T04:20:50.859Z,101866.41
2023-04-17T04:23:28.313Z,101877.47
2023-04-17T04:25:58.101Z,101874.00
2023-04-17T04:28:35.154Z,101865.19
2023-04-17T04:31:05.640Z,101878.69
2023-04-17T04:33:39.305Z,101877.81
2023-04-17T04:36:08.430Z,101884.53
2023-04-17T04:38:38.091Z,101891.78
2023-04-17T04:41:25.351Z,101888.84
2023-04-17T04:43:55.620Z,101891.63
2023-04-17T04:46:26.055Z,101897.50
2023-04-17T04:48:54.785Z,101897.50
2023-04-17T04:51:23.293Z,101892.63
2023-04-17T04:53:52.361Z,101890.41
2023-04-17T04:56:21.447Z,101904.06
2023-04-17T04:58:51.709Z,101901.81
2023-04-17T05:01:21.403Z,101901.47
2023-04-17T05:03:52.926Z,101895.75
2023-04-17T05:06:28.143Z,101901.63
2023-04-17T05:09:01.373Z,101906.56
2023-04-17T05:11:30.838Z,101905.03
2023-04-17T05:13:59.976Z,101915.63
2023-04-17T05:16:33.100Z,101917.38
2023-04-17T05:19:03.185Z,101908.91
2023-04-17T05:21:52.812Z,101914.59
2023-04-17T05:24:23.329Z,101912.34
2023-04-17T05:26:52.011Z,101912.94
2023-04-17T05:29:20.531Z,101920.63
2023-04-17T05:31:49.171Z,101922.22
2023-04-17T05:34:37.452Z,101922.50
2023-04-17T05:37:07.264Z,101921.00
2023-04-17T05:39:35.798Z,101916.28
2023-04-17T05:42:04.389Z,101929.84
2023-04-17T05:44:32.991Z,101927.94
2023-04-17T05:47:01.522Z,101936.34
2023-04-17T05:49:30.348Z,101929.94
2023-04-17T05:52:01.267Z,101936.34
2023-04-17T05:54:30.454Z,101934.91
2023-04-17T05:56:59.901Z,101939.28
2023-04-17T05:59:29.225Z,101943.78
2023-04-17T06:01:59.543Z,101948.75
2023-04-17T06:04:29.631Z,101940.75
2023-04-17T06:06:58.379Z,101946.25
2023-04-17T06:09:28.386Z,101942.84
2023-04-17T06:11:56.912Z,101953.06
2023-04-17T06:14:25.485Z,101957.41
2023-04-17T06:16:54.522Z,101963.63
2023-04-17T06:19:26.018Z,101964.38
2023-04-17T06:21:54.569Z,101967.69
2023-04-17T06:24:22.970Z,101970.31
2023-04-17T06:26:53.163Z,101967.25
2023-04-17T06:29:21.605Z,101975.16
2023-04-17T06:31:50.569Z,101971.56
2023-04-17T06:34:22.610Z,101982.09
2023-04-17T06:36:51.686Z,101979.31
2023-04-17T06:39:23.430Z,101976.38
2023-04-17T06:41:54.137Z,101973.31
2023-04-17T06:44:28.447Z,101980.13
2023-04-17T06:47:00.478Z,101986.34
2023-04-17T06:49:30.685Z,101986.50
2023-04-17T06:51:59.193Z,101989.88
2023-04-17T06:54:27.971Z,101994.75
2023-04-17T06:56:57.944Z,101988.41
2023-04-17T06:59:26.549Z,101985.38
2023-04-17T07:01:55.089Z,101987.56
2023-04-17T07:04:23.783Z,101985.09
2023-04-17T07:06:52.314Z,101984.53
2023-04-17T07:09:20.804Z,101995.44
2023-04-17T07:11:49.374Z,101994.28
2023-04-17T07:14:19.430Z,101998.31
2023-04-17T07:16:48.139Z,101993.16
2023-04-17T07:19:16.800Z,101998.69
2023-04-17T07:21:45.423Z,102002.91
2023-04-17T07:24:13.988Z,102000.03
2023-04-17T07:26:43.449Z,102000.03
2023-04-17T07:29:12.297Z,102006.81
2023-04-17T07:31:42.606Z,102001.91
2023-04-17T07:34:11.288Z,102009.78
2023-04-17T07:36:39.977Z,102005.25
2023-04-17T07:39:08.753Z,102005.16
2023-04-17T07:41:37.382Z,102012.91
2023-04-17T07:44:06.691Z,102016.00
2023-04-17T07:46:35.402Z,102014.63
2023-04-17T07:49:05.872Z,102018.09
2023-04-17T07:51:34.586Z,102012.81
2023-04-17T07:54:03.943Z,102016.91
2023-04-17T07:56:34.726Z,102022.84
2023-04-17T07:59:03.785Z,102026.72
2023-04-17T08:01:34.162Z,102022.75
2023-04-17T08:04:03.612Z,102027.50
2023-04-17T08:06:33.795Z,102023.84
2023-04-17T08:09:03.566Z,102030.69
2023-04-17T08:11:35.691Z,102028.16
2023-04-17T08:14:08.874Z,102022.09
2023-04-17T08:16:37.429Z,102029.75
2023-04-17T08:19:06.145Z,102030.56
2023-04-17T08:21:36.474Z,102030.78
2023-04-17T08:24:05.208Z,102037.16
2023-04-17T08:26:33.614Z,102029.56
2023-04-17T08:29:04.649Z,102035.16
2023-04-17T08:31:34.616Z,102043.81
2023-04-17T08:34:13.797Z,102049.38
2023-04-17T08:36:46.378Z,102050.53
2023-04-17T08:39:16.643Z,102055.63
2023-04-17T08:41:51.243Z,102051.75
2023-04-17T08:44:21.511Z,102056.75
2023-04-17T08:46:50.842Z,102052.66
2023-04-17T08:49:19.227Z,102055.53
2023-04-17T08:51:49.116Z,102057.59
2023-04-17T08:54:19.538Z,102064.06
2023-04-17T08:56:47.901Z,102063.31
2023-04-17T08:59:17.290Z,102069.66
2023-04-17T09:02:01.271Z,102065.88
2023-04-17T09:04:38.303Z,102066.81
2023-04-17T09:07:09.129Z,102069.66
2023-04-17T09:09:51.303Z,102074.34
2023-04-17T09:12:20.332Z,102079.41
2023-04-17T09:14:48.899Z,102074.81
2023-04-17T09:17:18.602Z,102082.06
2023-04-17T09:20:08.034Z,102085.03
2023-04-17T09:22:39.426Z,102072.00
2023-04-17T09:25:17.904Z,102083.22
2023-04-17T09:27:46.584Z,102075.03
2023-04-17T09:30:15.562Z,102089.81
2023-04-17T09:32:44.105Z,102088.91
2023-04-17T09:35:12.520Z,102091.16
2023-04-17T09:37:56.431Z,102089.84
2023-04-17T09:40:25.514Z,102086.28
2023-04-17T09:42:58.980Z,102088.66
2023-04-17T09:45:33.397Z,102091.38
2023-04-17T09:48:02.296Z,102087.84
2023-04-17T09:50:31.429Z,102081.50
2023-04-17T09:53:01.529Z,102071.00
2023-04-17T09:55:31.566Z,102081.16
2023-04-17T09:58:03.370Z,102074.81
2023-04-17T10:00:32.160Z,102081.38
2023-04-17T10:03:01.746Z,102081.16
2023-04-17T10:05:32.661Z,102080.56
2023-04-17T10:08:04.143Z,102082.63
2023-04-17T10:10:34.138Z,102083.47
2023-04-17T10:13:04.569Z,102081.13
2023-04-17T10:15:34.323Z,102089.19
2023-04-17T10:18:23.840Z,102089.44
2023-04-17T10:20:55.746Z,102078.91
2023-04-17T10:23:33.567Z,102083.28
2023-04-17T10:26:39.173Z,102088.34
2023-04-17T10:29:07.774Z,102097.63
2023-04-17T10:32:09.558Z,102085.91
2023-04-17T10:34:40.506Z,102084.63
2023-04-17T10:37:15.585Z,102088.00
2023-04-17T10:39:55.271Z,102101.22
2023-04-17T10:42:25.910Z,102097.31
2023-04-17T10:45:01.846Z,102098.88
2023-04-17T10:47:34.906Z,102094.78
2023-04-17T10:50:05.781Z,102096.66
2023-04-17T10:52:45.021Z,102097.63
2023-04-17T10:55:18.458Z,102100.69
2023-04-17T10:57:59.367Z,102117.03
2023-04-17T11:00:35.273Z,102110.28
2023-04-17T11:03:07.204Z,102109.34
2023-04-17T11:05:36.841Z,102110.41
2023-04-17T11:08:05.204Z,102116.56
2023-04-17T11:10:37.713Z,102121.25
2023-04-17T11:13:06.219Z,102128.16
2023-04-17T11:15:36.508Z,102118.75
2023-04-17T11:18:05.455Z,102121.56
2023-04-17T11:20:34.945Z,102116.19
2023-04-17T11:23:03.971Z,102129.78
2023-04-17T11:25:35.122Z,102123.72
2023-04-17T11:28:05.405Z,102124.41
2023-04-17T11:30:35.403Z,102122.94
2023-04-17T11:33:06.348Z,102121.00
2023-04-17T11:35:36.840Z,102124.03
2023-04-17T11:38:21.727Z,102136.94
2023-04-17T11:40:53.737Z,102136.28
2023-04-17T11:43:23.771Z,102138.81
2023-04-17T11:45:53.373Z,102135.69
2023-04-17T11:48:24.065Z,102142.13
2023-04-17T11:50:56.866Z,102134.56
2023-04-17T11:53:25.846Z,102136.63
2023-04-17T11:56:14.316Z,102136.31
2023-04-17T11:58:50.486Z,102146.78
2023-04-17T12:01:20.085Z,102137.97
2023-04-17T12:03:49.200Z,102143.19
2023-04-17T12:06:18.003Z,102143.03
2023-04-17T12:08:50.493Z,102139.41
2023-04-17T12:11:33.208Z,102141.16
2023-04-17T12:14:02.728Z,102147.59
2023-04-17T12:16:31.712Z,102140.22
2023-04-17T12:19:00.262Z,102136.44
2023-04-17T12:21:28.656Z,102148.16
2023-04-17T12:23:57.090Z,102143.38
2023-04-17T12:26:26.987Z,102148.44
2023-04-17T12:28:57.574Z,102149.84
2023-04-17T12:31:25.984Z,102149.22
2023-04-17T12:33:54.446Z,102150.28
2023-04-17T12:36:22.985Z,102141.41
2023-04-17T12:38:51.487Z,102148.00
2023-04-17T12:41:20.180Z,102148.25
2023-04-17T12:43:50.027Z,102149.34
2023-04-17T12:46:18.842Z,102154.28
2023-04-17T12:48:47.407Z,102155.78
2023-04-17T12:51:15.768Z,102153.16
2023-04-17T12:53:44.324Z,102155.41
2023-04-17T12:56:12.726Z,102149.75
2023-04-17T12:58:41.193Z,102159.38
2023-04-17T13:01:11.441Z,102145.84
2023-04-17T13:03:41.509Z,102147.22
2023-04-17T13:06:10.440Z,102153.66
2023-04-17T13:08:39.341Z,102149.06
2023-04-17T13:11:07.767Z,102154.09
2023-04-17T13:13:36.222Z,102149.06
2023-04-17T13:16:04.901Z,102151.25
2023-04-17T13:18:34.854Z,102154.47
2023-04-17T13:21:03.255Z,102152.09
2023-04-17T13:23:31.757Z,102155.34
2023-04-17T13:26:00.355Z,102149.72
2023-04-17T13:28:28.810Z,102147.56
2023-04-17T13:30:57.290Z,102149.66
2023-04-17T13:33:25.843Z,102152.91
2023-04-17T13:35:55.664Z,102155.25
2023-04-17T13:38:24.204Z,102147.44
2023-04-17T13:40:52.667Z,102144.75
2023-04-17T13:43:21.131Z,102151.22
2023-04-17T13:45:49.928Z,102152.00
2023-04-17T13:48:18.487Z,102146.31
2023-04-17T13:50:46.970Z,102150.28
2023-04-17T13:53:16.848Z,102150.69
2023-04-17T13:55:45.269Z,102154.75
2023-04-17T13:58:13.776Z,102146.94
2023-04-17T14:00:42.276Z,102150.53
2023-04-17T14:03:10.904Z,102151.72
2023-04-17T14:05:39.561Z,102154.28
2023-04-17T14:08:08.076Z,102158.50
2023-04-17T14:10:38.144Z,102158.63
2023-04-17T14:13:07.246Z,102154.44
2023-04-17T14:15:35.702Z,102160.84
2023-04-17T14:18:04.212Z,102165.06
2023-04-17T14:20:32.866Z,102161.78
2023-04-17T14:23:01.269Z,102160.75
2023-04-17T14:25:29.842Z,102161.00
2023-04-17T14:27:59.753Z,102166.41
2023-04-17T14:30:28.209Z,102168.25
2023-04-17T14:32:56.650Z,102174.09
2023-04-17T14:35:25.344Z,102171.91
2023-04-17T14:37:54.142Z,102173.34
2023-04-17T14:40:22.643Z,102168.84
2023-04-17T14:42:54.438Z,102172.94
2023-04-17T14:45:24.999Z,102166.56
2023-04-17T14:47:54.121Z,102176.81
2023-04-17T14:50:22.770Z,102178.13
2023-04-17T14:52:51.979Z,102181.22
2023-04-17T14:55:20.341Z,102174.75
2023-04-17T14:57:48.884Z,102172.72
2023-04-17T15:00:18.223Z,102167.09
2023-04-17T15:02:48.504Z,102171.41
2023-04-17T15:05:20.267Z,102161.72
2023-04-17T15:07:48.868Z,102166.25
2023-04-17T15:10:17.841Z,102165.41
2023-04-17T15:12:46.368Z,102169.81
2023-04-17T15:15:14.884Z,102167.53
2023-04-17T15:17:43.299Z,102170.34
2023-04-17T15:20:13.429Z,102173.31
2023-04-17T15:22:41.801Z,102173.84
2023-04-17T15:25:10.740Z,102176.69
2023-04-17T15:27:39.152Z,102168.78
2023-04-17T15:30:09.068Z,102170.16
2023-04-17T15:32:37.521Z,102167.66
2023-04-17T15:35:07.286Z,102169.44
2023-04-17T15:37:38.970Z,102168.56
2023-04-17T15:40:08.783Z,102166.09
2023-04-17T15:42:38.145Z,102165.13
2023-04-17T15:45:07.854Z,102168.56
2023-04-17T15:47:36.382Z,102171.53
2023-04-17T15:50:05.184Z,102167.31
2023-04-17T15:52:33.566Z,102164.75
2023-04-17T15:55:03.603Z,102171.53
2023-04-17T15:57:32.064Z,102168.75
2023-04-17T16:00:00.398Z,102166.09
2023-04-17T16:02:29.137Z,102169.97
2023-04-17T16:04:57.696Z,102171.44
2023-04-17T16:07:26.188Z,102165.72
2023-04-17T16:09:54.632Z,102174.56
2023-04-17T16:12:24.530Z,102167.31
2023-04-17T16:14:53.030Z,102174.84
2023-04-17T16:17:21.600Z,102170.75
2023-04-17T16:19:50.857Z,102177.41
2023-04-17T16:22:19.630Z,102179.59
2023-04-17T16:24:48.030Z,102174.50
2023-04-17T16:27:16.528Z,102181.97
2023-04-17T16:29:46.552Z,102178.75
2023-04-17T16:32:15.523Z,102181.50
2023-04-17T16:34:44.069Z,102178.69
2023-04-17T16:37:12.510Z,102180.44
2023-04-17T16:39:41.032Z,102181.97
2023-04-17T16:42:09.592Z,102180.25
2023-04-17T16:44:38.129Z,102183.13
2023-04-17T16:47:13.384Z,102182.28
2023-04-17T16:49:42.134Z,102192.97
2023-04-17T16:52:10.677Z,102190.81
2023-04-17T16:54:39.165Z,102195.13
2023-04-17T16:57:07.541Z,102197.50
2023-04-17T16:59:36.052Z,102187.88
2023-04-17T17:02:04.672Z,102197.69
2023-04-17T17:04:34.678Z,102200.09
2023-04-17T17:07:03.281Z,102196.44
2023-04-17T17:09:31.758Z,102195.00
2023-04-17T17:12:00.792Z,102203.31
2023-04-17T17:14:29.510Z,102208.94
2023-04-17T17:16:58.193Z,102206.88
2023-04-17T17:19:26.960Z,102205.72
2023-04-17T17:21:56.890Z,102212.41
2023-04-17T17:24:25.352Z,102212.72
2023-04-17T17:26:53.894Z,102216.50
2023-04-17T17:29:22.603Z,102211.09
2023-04-17T17:31:51.096Z,102220.16
2023-04-17T17:34:26.205Z,102213.47
2023-04-17T17:36:57.129Z,102213.34
2023-04-17T17:39:25.734Z,102221.91
2023-04-17T17:41:56.369Z,102211.34
2023-04-17T17:44:25.003Z,102218.88
2023-04-17T17:46:53.961Z,102224.28
2023-04-17T17:49:22.952Z,102222.31
2023-04-17T17:51:51.606Z,102229.19
2023-04-17T17:54:22.272Z,102222.06
2023-04-17T17:56:51.117Z,102225.53
2023-04-17T17:59:20.130Z,102238.47
2023-04-17T18:01:49.103Z,102238.78
2023-04-17T18:04:17.908Z,102236.00
2023-04-17T18:06:47.162Z,102243.97
2023-04-17T18:09:15.689Z,102240.97
2023-04-17T18:11:45.704Z,102235.78
2023-04-17T18:14:14.573Z,102236.09
2023-04-17T18:16:44.500Z,102235.25
2023-04-17T18:19:13.389Z,102242.03
2023-04-17T18:21:42.164Z,102241.56
2023-04-17T18:24:11.338Z,102235.47
2023-04-17T18:26:40.585Z,102238.88
2023-04-17T18:29:11.008Z,102235.84
2023-04-17T18:31:40.639Z,102242.31
2023-04-17T18:34:09.655Z,102243.72
2023-04-17T18:36:38.635Z,102243.44
2023-04-17T18:39:07.506Z,102242.22
2023-04-17T18:41:36.475Z,102250.97
2023-04-17T18:44:06.333Z,102243.19
2023-04-17T18:46:36.829Z,102244.84
2023-04-17T18:49:05.925Z,102247.03
2023-04-17T18:51:34.729Z,102250.41
2023-04-17T18:54:03.567Z,102246.66
2023-04-17T18:56:32.378Z,102250.97
2023-04-17T18:59:01.004Z,102252.13
2023-04-17T19:01:29.585Z,102247.81
2023-04-17T19:03:59.559Z,102260.78
2023-04-17T19:06:28.154Z,102259.91
2023-04-17T19:08:57.293Z,102267.22
2023-04-17T19:11:27.673Z,102260.44
2023-04-17T19:13:56.373Z,102256.63
2023-04-17T19:16:25.056Z,102257.59
2023-04-17T19:18:53.644Z,102263.63
2023-04-17T19:21:23.673Z,102258.25
2023-04-17T19:23:52.361Z,102259.38
2023-04-17T19:26:20.778Z,102252.22
2023-04-17T19:28:51.361Z,102257.38
2023-04-17T19:31:22.255Z,102254.13
2023-04-17T19:33:50.494Z,102251.22
2023-04-17T19:36:19.068Z,102250.16
2023-04-17T19:38:49.161Z,102253.72
2023-04-17T19:41:19.100Z,102246.16
2023-04-17T19:43:50.728Z,102246.16
2023-04-17T19:46:22.426Z,102249.50
2023-04-17T19:48:52.724Z,102256.72
2023-04-17T19:51:21.382Z,102257.38
2023-04-17T19:53:53.421Z,102253.63
2023-04-17T19:56:21.944Z,102247.97
2023-04-17T19:58:50.467Z,102252.91
2023-04-17T20:01:19.079Z,102259.50
2023-04-17T20:03:47.761Z,102250.84
2023-04-17T20:06:16.585Z,102251.06
2023-04-17T20:08:45.379Z,102256.16
2023-04-17T20:11:19.607Z,102249.72
2023-04-17T20:13:48.459Z,102256.22
2023-04-17T20:16:17.012Z,102255.97
2023-04-17T20:18:45.944Z,102255.66
2023-04-17T20:21:14.869Z,102259.31
2023-04-17T20:23:43.751Z,102252.22
2023-04-17T20:26:12.763Z,102250.28
2023-04-17T20:28:43.113Z,102253.53
2023-04-17T20:31:11.892Z,102253.91
2023-04-17T20:33:40.499Z,102242.28
2023-04-17T20:36:09.147Z,102253.06
2023-04-17T20:38:37.649Z,102254.22
2023-04-17T20:41:06.441Z,102253.25
2023-04-17T20:43:35.154Z,102253.75
2023-04-17T20:46:06.227Z,102260.84
2023-04-17T20:48:34.974Z,102262.41
2023-04-17T20:51:05.742Z,102265.66
2023-04-17T20:53:34.645Z,102268.66
2023-04-17T20:56:03.484Z,102270.75
2023-04-17T20:58:32.229Z,102276.63
2023-04-17T21:01:01.881Z,102270.94
2023-04-17T21:03:32.448Z,102275.19
2023-04-17T21:06:01.351Z,102280.78
2023-04-17T21:08:30.093Z,102267.28
2023-04-17T21:10:58.623Z,102272.88
2023-04-17T21:13:27.476Z,102280.63
2023-04-17T21:15:56.167Z,102279.91
2023-04-17T21:18:24.888Z,102276.38
2023-04-17T21:20:54.997Z,102279.75
2023-04-17T21:23:23.794Z,102281.75
2023-04-17T21:25:53.811Z,102281.19
2023-04-17T21:28:22.688Z,102281.97
2023-04-17T21:30:51.267Z,102281.03
2023-04-17T21:33:19.868Z,102275.53
2023-04-17T21:35:48.435Z,102276.22
2023-04-17T21:38:18.573Z,102272.50
2023-04-17T21:43:18.606Z,102281.81
2023-04-17T21:45:47.147Z,102273.63
2023-04-17T21:48:16.300Z,102277.19
2023-04-17T21:50:44.965Z,102292.59
2023-04-17T21:53:13.675Z,102281.03
2023-04-17T21:55:43.809Z,102295.44
2023-04-17T21:58:12.542Z,102289.28
2023-04-17T22:00:41.301Z,102291.38
2023-04-17T22:03:10.030Z,102291.38
2023-04-17T22:05:38.654Z,102295.13
2023-04-17T22:08:07.553Z,102295.31
2023-04-17T22:10:36.217Z,102294.28
2023-04-17T22:13:06.364Z,102297.47
2023-04-17T22:15:34.963Z,102298.31
2023-04-17T22:18:04.130Z,102297.91
2023-04-17T22:21:27.176Z,102300.75
2023-04-17T22:24:50.341Z,102306.13
2023-04-17T22:28:32.195Z,102304.06
2023-04-17T22:32:14.479Z,102301.31
2023-04-17T22:35:56.570Z,102297.50
2023-04-17T22:39:38.426Z,102295.59
2023-04-17T22:43:20.488Z,102302.94
2023-04-17T22:46:09.378Z,102285.91
2023-04-17T22:48:38.170Z,102294.06
2023-04-17T22:51:07.180Z,102300.78
2023-04-17T22:53:36.390Z,102299.22
2023-04-17T22:56:06.569Z,102301.13
2023-04-17T22:58:36.408Z,102299.75
2023-04-17T23:01:05.298Z,102296.53
2023-04-17T23:03:36.666Z,102296.94
2023-04-17T23:06:07.685Z,102293.88
2023-04-17T23:08:36.464Z,102290.19
2023-04-17T23:11:06.176Z,102295.06
2023-04-17T23:13:34.880Z,102291.47
2023-04-17T23:16:04.607Z,102296.22
2023-04-17T23:18:34.888Z,102301.59
2023-04-17T23:21:03.605Z,102284.22
2023-04-17T23:23:32.276Z,102292.91
2023-04-17T23:26:01.030Z,102285.41
2023-04-17T23:28:30.937Z,102291.53
2023-04-17T23:30:59.619Z,102284.78
2023-04-17T23:33:28.224Z,102290.09
2023-04-17T23:35:58.146Z,102289.09
2023-04-17T23:38:26.956Z,102285.66
2023-04-17T23:40:55.727Z,102283.63
2023-04-17T23:43:24.226Z,102285.88
2023-04-17T23:45:52.803Z,102284.09
2023-04-17T23:48:21.252Z,102280.19
2023-04-17T23:50:49.775Z,102281.44
2023-04-17T23:53:19.758Z,102272.06
2023-04-17T23:55:48.283Z,102271.75
2023-04-17T23:58:17.018Z,102274.84
